sensor_id;sensor_type;location;lat;lon;timestamp;temperature;humidity
15707;DHT22;7953;54.302;10.128;2022-09-16T00:00:25;11.00;99.90
15707;DHT22;7953;54.302;10.128;2022-09-16T00:02:54;11.00;99.90
15707;DHT22;7953;54.302;10.128;2022-09-16T00:05:22;11.00;99.90
15707;DHT22;7953;54.302;10.128;2022-09-16T00:07:49;11.00;99.90
15707;DHT22;7953;54.302;10.128;2022-09-16T00:10:17;11.00;99.90
15707;DHT22;7953;54.302;10.128;2022-09-16T00:12:43;11.00;99.90
15707;DHT22;7953;54.302;10.128;2022-09-16T00:15:10;11.00;99.90
15707;DHT22;7953;54.302;10.128;2022-09-16T00:17:37;10.90;99.90
15707;DHT22;7953;54.302;10.128;2022-09-16T00:20:05;10.90;99.90
15707;DHT22;7953;54.302;10.128;2022-09-16T00:22:34;10.90;99.90
15707;DHT22;7953;54.302;10.128;2022-09-16T00:25:00;10.80;99.90
15707;DHT22;7953;54.302;10.128;2022-09-16T00:27:27;10.80;99.90
15707;DHT22;7953;54.302;10.128;2022-09-16T00:29:54;10.80;99.90
15707;DHT22;7953;54.302;10.128;2022-09-16T00:32:21;10.80;99.90
15707;DHT22;7953;54.302;10.128;2022-09-16T00:34:48;10.80;99.90
15707;DHT22;7953;54.302;10.128;2022-09-16T00:37:15;10.70;99.90
15707;DHT22;7953;54.302;10.128;2022-09-16T00:39:46;10.70;99.90
15707;DHT22;7953;54.302;10.128;2022-09-16T00:42:13;10.70;99.90
15707;DHT22;7953;54.302;10.128;2022-09-16T00:44:57;10.60;99.90
15707;DHT22;7953;54.302;10.128;2022-09-16T00:47:31;10.60;99.90
15707;DHT22;7953;54.302;10.128;2022-09-16T00:50:02;10.60;99.90
15707;DHT22;7953;54.302;10.128;2022-09-16T00:52:31;10.50;99.90
15707;DHT22;7953;54.302;10.128;2022-09-16T00:55:02;10.50;99.90
15707;DHT22;7953;54.302;10.128;2022-09-16T00:57:32;10.40;99.90
15707;DHT22;7953;54.302;10.128;2022-09-16T01:00:00;10.40;99.90
15707;DHT22;7953;54.302;10.128;2022-09-16T01:02:27;10.30;99.90
15707;DHT22;7953;54.302;10.128;2022-09-16T01:04:57;10.30;99.90
15707;DHT22;7953;54.302;10.128;2022-09-16T01:07:29;10.30;99.90
15707;DHT22;7953;54.302;10.128;2022-09-16T01:09:57;10.20;99.90
15707;DHT22;7953;54.302;10.128;2022-09-16T01:12:26;10.20;99.90
15707;DHT22;7953;54.302;10.128;2022-09-16T01:14:55;10.20;99.90
15707;DHT22;7953;54.302;10.128;2022-09-16T01:17:59;10.20;99.90
15707;DHT22;7953;54.302;10.128;2022-09-16T01:20:57;10.10;99.90
15707;DHT22;7953;54.302;10.128;2022-09-16T01:23:40;10.20;99.90
15707;DHT22;7953;54.302;10.128;2022-09-16T01:26:44;10.20;99.90
15707;DHT22;7953;54.302;10.128;2022-09-16T01:29:31;10.20;99.90
15707;DHT22;7953;54.302;10.128;2022-09-16T01:32:03;10.10;99.90
15707;DHT22;7953;54.302;10.128;2022-09-16T01:34:39;10.10;99.90
15707;DHT22;7953;54.302;10.128;2022-09-16T01:37:14;10.00;99.90
15707;DHT22;7953;54.302;10.128;2022-09-16T01:39:51;10.00;99.90
15707;DHT22;7953;54.302;10.128;2022-09-16T01:42:37;10.00;99.90
15707;DHT22;7953;54.302;10.128;2022-09-16T01:45:10;10.00;99.90
15707;DHT22;7953;54.302;10.128;2022-09-16T01:47:47;10.00;99.90
15707;DHT22;7953;54.302;10.128;2022-09-16T01:50:19;10.00;99.90
15707;DHT22;7953;54.302;10.128;2022-09-16T01:52:55;10.00;99.90
15707;DHT22;7953;54.302;10.128;2022-09-16T01:55:28;10.00;99.90
15707;DHT22;7953;54.302;10.128;2022-09-16T01:57:58;10.10;99.90
15707;DHT22;7953;54.302;10.128;2022-09-16T02:00:26;10.00;99.90
15707;DHT22;7953;54.302;10.128;2022-09-16T02:02:57;10.00;99.90
15707;DHT22;7953;54.302;10.128;2022-09-16T02:05:31;10.00;99.90
15707;DHT22;7953;54.302;10.128;2022-09-16T02:08:01;10.00;99.90
15707;DHT22;7953;54.302;10.128;2022-09-16T02:10:31;10.00;99.90
15707;DHT22;7953;54.302;10.128;2022-09-16T02:13:04;9.90;99.90
15707;DHT22;7953;54.302;10.128;2022-09-16T02:15:32;9.90;99.90
15707;DHT22;7953;54.302;10.128;2022-09-16T02:18:04;9.90;99.90
15707;DHT22;7953;54.302;10.128;2022-09-16T02:20:35;10.00;99.90
15707;DHT22;7953;54.302;10.128;2022-09-16T02:23:07;9.90;99.90
15707;DHT22;7953;54.302;10.128;2022-09-16T02:25:38;10.00;99.90
15707;DHT22;7953;54.302;10.128;2022-09-16T02:28:07;10.00;99.90
15707;DHT22;7953;54.302;10.128;2022-09-16T02:30:39;10.00;99.90
15707;DHT22;7953;54.302;10.128;2022-09-16T02:33:10;10.00;99.90
15707;DHT22;7953;54.302;10.128;2022-09-16T02:35:40;10.00;99.90
15707;DHT22;7953;54.302;10.128;2022-09-16T02:38:11;10.10;99.90
15707;DHT22;7953;54.302;10.128;2022-09-16T02:40:42;10.10;99.90
15707;DHT22;7953;54.302;10.128;2022-09-16T02:43:11;10.20;99.90
15707;DHT22;7953;54.302;10.128;2022-09-16T02:45:44;10.20;99.90
15707;DHT22;7953;54.302;10.128;2022-09-16T02:48:19;10.20;99.90
15707;DHT22;7953;54.302;10.128;2022-09-16T02:50:52;10.20;99.90
15707;DHT22;7953;54.302;10.128;2022-09-16T02:53:29;10.20;99.90
15707;DHT22;7953;54.302;10.128;2022-09-16T02:56:02;10.20;99.90
15707;DHT22;7953;54.302;10.128;2022-09-16T02:58:33;10.20;99.90
15707;DHT22;7953;54.302;10.128;2022-09-16T03:01:00;10.20;99.90
15707;DHT22;7953;54.302;10.128;2022-09-16T03:03:29;10.20;99.90
15707;DHT22;7953;54.302;10.128;2022-09-16T03:06:18;10.20;99.90
15707;DHT22;7953;54.302;10.128;2022-09-16T03:08:46;10.20;99.90
15707;DHT22;7953;54.302;10.128;2022-09-16T03:11:38;10.20;99.90
15707;DHT22;7953;54.302;10.128;2022-09-16T03:14:18;10.20;99.90
15707;DHT22;7953;54.302;10.128;2022-09-16T03:16:54;10.20;99.90
15707;DHT22;7953;54.302;10.128;2022-09-16T03:19:31;10.30;99.90
15707;DHT22;7953;54.302;10.128;2022-09-16T03:22:02;10.20;99.90
15707;DHT22;7953;54.302;10.128;2022-09-16T03:24:37;10.20;99.90
15707;DHT22;7953;54.302;10.128;2022-09-16T03:27:09;10.10;99.90
15707;DHT22;7953;54.302;10.128;2022-09-16T03:29:40;10.10;99.90
15707;DHT22;7953;54.302;10.128;2022-09-16T03:32:13;10.00;99.90
15707;DHT22;7953;54.302;10.128;2022-09-16T03:34:50;10.00;99.90
15707;DHT22;7953;54.302;10.128;2022-09-16T03:37:20;10.00;99.90
15707;DHT22;7953;54.302;10.128;2022-09-16T03:39:49;9.90;99.90
15707;DHT22;7953;54.302;10.128;2022-09-16T03:42:18;9.90;99.90
15707;DHT22;7953;54.302;10.128;2022-09-16T03:44:46;9.90;99.90
15707;DHT22;7953;54.302;10.128;2022-09-16T03:47:13;9.90;99.90
15707;DHT22;7953;54.302;10.128;2022-09-16T03:49:40;9.90;99.90
15707;DHT22;7953;54.302;10.128;2022-09-16T03:52:09;9.90;99.90
15707;DHT22;7953;54.302;10.128;2022-09-16T03:54:37;9.90;99.90
15707;DHT22;7953;54.302;10.128;2022-09-16T03:57:04;9.90;99.90
15707;DHT22;7953;54.302;10.128;2022-09-16T03:59:31;9.90;99.90
15707;DHT22;7953;54.302;10.128;2022-09-16T04:01:58;9.90;99.90
15707;DHT22;7953;54.302;10.128;2022-09-16T04:04:25;9.90;99.90
15707;DHT22;7953;54.302;10.128;2022-09-16T04:06:52;10.00;99.90
15707;DHT22;7953;54.302;10.128;2022-09-16T04:09:20;10.00;99.90
15707;DHT22;7953;54.302;10.128;2022-09-16T04:11:47;10.00;99.90
15707;DHT22;7953;54.302;10.128;2022-09-16T04:14:14;10.00;99.90
15707;DHT22;7953;54.302;10.128;2022-09-16T04:16:41;10.00;99.90
15707;DHT22;7953;54.302;10.128;2022-09-16T04:19:09;10.00;99.90
15707;DHT22;7953;54.302;10.128;2022-09-16T04:21:37;10.10;99.90
15707;DHT22;7953;54.302;10.128;2022-09-16T04:24:05;10.10;99.90
15707;DHT22;7953;54.302;10.128;2022-09-16T04:26:33;10.10;99.90
15707;DHT22;7953;54.302;10.128;2022-09-16T04:29:00;10.20;99.90
15707;DHT22;7953;54.302;10.128;2022-09-16T04:31:27;10.20;99.90
15707;DHT22;7953;54.302;10.128;2022-09-16T04:33:53;10.20;99.90
15707;DHT22;7953;54.302;10.128;2022-09-16T04:36:20;10.20;99.90
15707;DHT22;7953;54.302;10.128;2022-09-16T04:38:47;10.20;99.90
15707;DHT22;7953;54.302;10.128;2022-09-16T04:41:16;10.20;99.90
15707;DHT22;7953;54.302;10.128;2022-09-16T04:43:45;10.20;99.90
15707;DHT22;7953;54.302;10.128;2022-09-16T04:46:12;10.20;99.90
15707;DHT22;7953;54.302;10.128;2022-09-16T04:48:39;10.20;99.90
15707;DHT22;7953;54.302;10.128;2022-09-16T04:51:08;10.20;99.90
15707;DHT22;7953;54.302;10.128;2022-09-16T04:53:35;10.20;99.90
15707;DHT22;7953;54.302;10.128;2022-09-16T04:56:05;10.20;99.90
15707;DHT22;7953;54.302;10.128;2022-09-16T04:58:32;10.20;99.90
15707;DHT22;7953;54.302;10.128;2022-09-16T05:01:05;10.20;99.90
15707;DHT22;7953;54.302;10.128;2022-09-16T05:03:32;10.20;99.90
15707;DHT22;7953;54.302;10.128;2022-09-16T05:06:07;10.20;99.90
15707;DHT22;7953;54.302;10.128;2022-09-16T05:08:35;10.20;99.90
15707;DHT22;7953;54.302;10.128;2022-09-16T05:11:04;10.20;99.90
15707;DHT22;7953;54.302;10.128;2022-09-16T05:13:31;10.20;99.90
15707;DHT22;7953;54.302;10.128;2022-09-16T05:16:05;10.20;99.90
15707;DHT22;7953;54.302;10.128;2022-09-16T05:18:32;10.20;99.90
15707;DHT22;7953;54.302;10.128;2022-09-16T05:21:00;10.20;99.90
15707;DHT22;7953;54.302;10.128;2022-09-16T05:23:27;10.20;99.90
15707;DHT22;7953;54.302;10.128;2022-09-16T05:25:54;10.20;99.90
15707;DHT22;7953;54.302;10.128;2022-09-16T05:28:21;10.30;99.90
15707;DHT22;7953;54.302;10.128;2022-09-16T05:30:48;10.30;99.90
15707;DHT22;7953;54.302;10.128;2022-09-16T05:33:16;10.40;99.90
15707;DHT22;7953;54.302;10.128;2022-09-16T05:35:43;10.40;99.90
15707;DHT22;7953;54.302;10.128;2022-09-16T05:38:11;10.40;99.90
15707;DHT22;7953;54.302;10.128;2022-09-16T05:40:38;10.40;99.90
15707;DHT22;7953;54.302;10.128;2022-09-16T05:43:05;10.50;99.90
15707;DHT22;7953;54.302;10.128;2022-09-16T05:45:32;10.50;99.90
15707;DHT22;7953;54.302;10.128;2022-09-16T05:47:59;10.50;99.90
15707;DHT22;7953;54.302;10.128;2022-09-16T05:50:28;10.60;99.90
15707;DHT22;7953;54.302;10.128;2022-09-16T05:52:55;10.60;99.90
15707;DHT22;7953;54.302;10.128;2022-09-16T05:55:22;10.60;99.90
15707;DHT22;7953;54.302;10.128;2022-09-16T05:57:50;10.60;99.90
15707;DHT22;7953;54.302;10.128;2022-09-16T06:00:17;10.70;99.90
15707;DHT22;7953;54.302;10.128;2022-09-16T06:02:46;10.60;99.90
15707;DHT22;7953;54.302;10.128;2022-09-16T06:05:13;10.70;99.90
15707;DHT22;7953;54.302;10.128;2022-09-16T06:07:41;10.70;99.90
15707;DHT22;7953;54.302;10.128;2022-09-16T06:10:09;10.70;99.90
15707;DHT22;7953;54.302;10.128;2022-09-16T06:12:35;10.70;99.90
15707;DHT22;7953;54.302;10.128;2022-09-16T06:15:03;10.70;99.90
15707;DHT22;7953;54.302;10.128;2022-09-16T06:17:30;10.80;99.90
15707;DHT22;7953;54.302;10.128;2022-09-16T06:19:56;10.90;99.90
15707;DHT22;7953;54.302;10.128;2022-09-16T06:22:23;10.90;99.90
15707;DHT22;7953;54.302;10.128;2022-09-16T06:24:52;10.90;99.90
15707;DHT22;7953;54.302;10.128;2022-09-16T06:27:18;11.00;99.90
15707;DHT22;7953;54.302;10.128;2022-09-16T06:29:45;11.00;99.90
15707;DHT22;7953;54.302;10.128;2022-09-16T06:32:12;11.10;99.90
15707;DHT22;7953;54.302;10.128;2022-09-16T06:34:39;11.10;99.90
15707;DHT22;7953;54.302;10.128;2022-09-16T06:37:08;11.10;99.90
15707;DHT22;7953;54.302;10.128;2022-09-16T06:39:37;11.10;99.90
15707;DHT22;7953;54.302;10.128;2022-09-16T06:42:07;11.20;99.90
15707;DHT22;7953;54.302;10.128;2022-09-16T06:44:34;11.30;99.90
15707;DHT22;7953;54.302;10.128;2022-09-16T06:47:01;11.40;99.90
15707;DHT22;7953;54.302;10.128;2022-09-16T06:49:28;11.50;99.90
15707;DHT22;7953;54.302;10.128;2022-09-16T06:51:54;11.50;99.90
15707;DHT22;7953;54.302;10.128;2022-09-16T06:54:21;11.40;99.90
15707;DHT22;7953;54.302;10.128;2022-09-16T06:56:48;11.40;99.90
15707;DHT22;7953;54.302;10.128;2022-09-16T06:59:16;11.40;99.90
15707;DHT22;7953;54.302;10.128;2022-09-16T07:01:43;11.40;99.90
15707;DHT22;7953;54.302;10.128;2022-09-16T07:04:10;11.30;99.90
15707;DHT22;7953;54.302;10.128;2022-09-16T07:06:38;11.30;99.90
15707;DHT22;7953;54.302;10.128;2022-09-16T07:09:05;11.30;99.90
15707;DHT22;7953;54.302;10.128;2022-09-16T07:11:32;11.30;99.90
15707;DHT22;7953;54.302;10.128;2022-09-16T07:13:58;11.30;99.90
15707;DHT22;7953;54.302;10.128;2022-09-16T07:16:28;11.40;99.90
15707;DHT22;7953;54.302;10.128;2022-09-16T07:18:56;11.40;99.90
15707;DHT22;7953;54.302;10.128;2022-09-16T07:21:25;11.50;99.90
15707;DHT22;7953;54.302;10.128;2022-09-16T07:23:55;11.60;99.90
15707;DHT22;7953;54.302;10.128;2022-09-16T07:26:23;11.70;99.90
15707;DHT22;7953;54.302;10.128;2022-09-16T07:28:52;11.80;99.90
15707;DHT22;7953;54.302;10.128;2022-09-16T07:31:21;11.90;99.90
15707;DHT22;7953;54.302;10.128;2022-09-16T07:33:52;12.00;99.90
15707;DHT22;7953;54.302;10.128;2022-09-16T07:36:22;12.00;99.90
15707;DHT22;7953;54.302;10.128;2022-09-16T07:38:50;12.20;99.90
15707;DHT22;7953;54.302;10.128;2022-09-16T07:41:19;12.20;99.90
15707;DHT22;7953;54.302;10.128;2022-09-16T07:43:47;12.30;99.90
15707;DHT22;7953;54.302;10.128;2022-09-16T07:46:16;12.40;99.90
15707;DHT22;7953;54.302;10.128;2022-09-16T07:48:45;12.50;99.90
15707;DHT22;7953;54.302;10.128;2022-09-16T07:51:14;12.50;99.90
15707;DHT22;7953;54.302;10.128;2022-09-16T07:53:42;12.50;99.90
15707;DHT22;7953;54.302;10.128;2022-09-16T07:56:11;12.60;99.90
15707;DHT22;7953;54.302;10.128;2022-09-16T07:58:38;12.70;99.90
15707;DHT22;7953;54.302;10.128;2022-09-16T08:01:06;12.90;99.90
15707;DHT22;7953;54.302;10.128;2022-09-16T08:03:34;13.00;99.90
15707;DHT22;7953;54.302;10.128;2022-09-16T08:06:02;13.00;99.90
15707;DHT22;7953;54.302;10.128;2022-09-16T08:08:32;13.10;99.90
15707;DHT22;7953;54.302;10.128;2022-09-16T08:11:00;13.10;99.90
15707;DHT22;7953;54.302;10.128;2022-09-16T08:13:29;13.20;99.90
15707;DHT22;7953;54.302;10.128;2022-09-16T08:16:00;13.20;99.90
15707;DHT22;7953;54.302;10.128;2022-09-16T08:18:27;13.30;99.90
15707;DHT22;7953;54.302;10.128;2022-09-16T08:20:54;13.50;99.90
15707;DHT22;7953;54.302;10.128;2022-09-16T08:23:21;13.60;99.90
15707;DHT22;7953;54.302;10.128;2022-09-16T08:25:56;13.80;99.90
15707;DHT22;7953;54.302;10.128;2022-09-16T08:28:24;14.00;99.90
15707;DHT22;7953;54.302;10.128;2022-09-16T08:30:51;14.10;99.90
15707;DHT22;7953;54.302;10.128;2022-09-16T08:33:19;14.20;99.90
15707;DHT22;7953;54.302;10.128;2022-09-16T08:35:57;14.30;99.90
15707;DHT22;7953;54.302;10.128;2022-09-16T08:38:24;14.50;99.90
15707;DHT22;7953;54.302;10.128;2022-09-16T08:40:52;14.70;99.90
15707;DHT22;7953;54.302;10.128;2022-09-16T08:43:26;14.70;99.90
15707;DHT22;7953;54.302;10.128;2022-09-16T08:45:58;14.70;99.90
15707;DHT22;7953;54.302;10.128;2022-09-16T08:48:32;14.70;99.90
15707;DHT22;7953;54.302;10.128;2022-09-16T08:51:01;14.60;99.90
15707;DHT22;7953;54.302;10.128;2022-09-16T08:53:34;14.60;99.90
15707;DHT22;7953;54.302;10.128;2022-09-16T08:56:09;14.60;99.90
15707;DHT22;7953;54.302;10.128;2022-09-16T08:58:42;14.70;99.90
15707;DHT22;7953;54.302;10.128;2022-09-16T09:01:15;14.70;99.90
15707;DHT22;7953;54.302;10.128;2022-09-16T09:03:46;14.70;99.90
15707;DHT22;7953;54.302;10.128;2022-09-16T09:06:22;14.70;99.90
15707;DHT22;7953;54.302;10.128;2022-09-16T09:08:58;14.70;99.90
15707;DHT22;7953;54.302;10.128;2022-09-16T09:11:33;14.80;99.90
15707;DHT22;7953;54.302;10.128;2022-09-16T09:14:15;14.80;99.90
15707;DHT22;7953;54.302;10.128;2022-09-16T09:16:50;14.90;99.90
15707;DHT22;7953;54.302;10.128;2022-09-16T09:19:34;15.00;99.90
15707;DHT22;7953;54.302;10.128;2022-09-16T09:22:11;15.10;99.90
15707;DHT22;7953;54.302;10.128;2022-09-16T09:24:54;15.20;99.90
15707;DHT22;7953;54.302;10.128;2022-09-16T09:27:26;15.20;99.90
15707;DHT22;7953;54.302;10.128;2022-09-16T09:30:08;15.20;99.90
15707;DHT22;7953;54.302;10.128;2022-09-16T09:32:46;15.30;99.90
15707;DHT22;7953;54.302;10.128;2022-09-16T09:35:26;15.20;99.90
15707;DHT22;7953;54.302;10.128;2022-09-16T09:38:17;15.20;99.90
15707;DHT22;7953;54.302;10.128;2022-09-16T09:40:48;15.10;99.90
15707;DHT22;7953;54.302;10.128;2022-09-16T09:43:20;15.20;99.90
15707;DHT22;7953;54.302;10.128;2022-09-16T09:45:56;15.30;99.90
15707;DHT22;7953;54.302;10.128;2022-09-16T09:48:28;15.40;99.90
15707;DHT22;7953;54.302;10.128;2022-09-16T09:50:58;15.40;99.90
15707;DHT22;7953;54.302;10.128;2022-09-16T09:53:34;15.50;99.90
15707;DHT22;7953;54.302;10.128;2022-09-16T09:56:11;15.70;99.90
15707;DHT22;7953;54.302;10.128;2022-09-16T09:58:42;15.70;99.90
15707;DHT22;7953;54.302;10.128;2022-09-16T10:01:11;15.70;99.90
15707;DHT22;7953;54.302;10.128;2022-09-16T10:03:38;15.70;99.90
15707;DHT22;7953;54.302;10.128;2022-09-16T10:06:05;15.70;99.90
15707;DHT22;7953;54.302;10.128;2022-09-16T10:08:37;15.60;99.90
15707;DHT22;7953;54.302;10.128;2022-09-16T10:11:15;15.50;99.90
15707;DHT22;7953;54.302;10.128;2022-09-16T10:13:47;15.30;99.90
15707;DHT22;7953;54.302;10.128;2022-09-16T10:16:17;15.40;99.90
15707;DHT22;7953;54.302;10.128;2022-09-16T10:18:54;15.50;99.90
15707;DHT22;7953;54.302;10.128;2022-09-16T10:21:22;15.60;99.90
15707;DHT22;7953;54.302;10.128;2022-09-16T10:23:53;15.70;99.90
15707;DHT22;7953;54.302;10.128;2022-09-16T10:26:23;15.80;99.90
15707;DHT22;7953;54.302;10.128;2022-09-16T10:28:55;15.90;99.90
15707;DHT22;7953;54.302;10.128;2022-09-16T10:31:28;15.90;99.90
15707;DHT22;7953;54.302;10.128;2022-09-16T10:33:56;16.00;99.90
15707;DHT22;7953;54.302;10.128;2022-09-16T10:36:28;15.90;99.90
15707;DHT22;7953;54.302;10.128;2022-09-16T10:38:57;16.00;99.90
15707;DHT22;7953;54.302;10.128;2022-09-16T10:41:27;16.00;99.90
15707;DHT22;7953;54.302;10.128;2022-09-16T10:43:58;15.90;99.90
15707;DHT22;7953;54.302;10.128;2022-09-16T10:46:27;15.60;99.90
15707;DHT22;7953;54.302;10.128;2022-09-16T10:48:58;15.50;99.90
15707;DHT22;7953;54.302;10.128;2022-09-16T10:51:27;15.40;99.90
15707;DHT22;7953;54.302;10.128;2022-09-16T10:53:56;15.60;99.90
15707;DHT22;7953;54.302;10.128;2022-09-16T10:56:26;15.80;99.90
15707;DHT22;7953;54.302;10.128;2022-09-16T10:59:05;16.10;99.90
15707;DHT22;7953;54.302;10.128;2022-09-16T11:01:40;16.30;99.90
15707;DHT22;7953;54.302;10.128;2022-09-16T11:04:39;16.30;99.90
15707;DHT22;7953;54.302;10.128;2022-09-16T11:07:18;16.30;99.90
15707;DHT22;7953;54.302;10.128;2022-09-16T11:09:53;16.20;99.90
15707;DHT22;7953;54.302;10.128;2022-09-16T11:12:37;16.10;99.90
15707;DHT22;7953;54.302;10.128;2022-09-16T11:15:14;15.90;99.90
15707;DHT22;7953;54.302;10.128;2022-09-16T11:17:53;15.70;99.90
15707;DHT22;7953;54.302;10.128;2022-09-16T11:20:43;15.70;99.90
15707;DHT22;7953;54.302;10.128;2022-09-16T11:23:20;15.60;99.90
15707;DHT22;7953;54.302;10.128;2022-09-16T11:25:56;15.70;99.90
15707;DHT22;7953;54.302;10.128;2022-09-16T11:28:37;15.60;99.90
15707;DHT22;7953;54.302;10.128;2022-09-16T11:31:12;15.60;99.90
15707;DHT22;7953;54.302;10.128;2022-09-16T11:33:54;15.20;99.90
15707;DHT22;7953;54.302;10.128;2022-09-16T11:36:39;15.00;99.90
15707;DHT22;7953;54.302;10.128;2022-09-16T11:39:17;14.70;99.90
15707;DHT22;7953;54.302;10.128;2022-09-16T11:41:53;14.50;99.90
15707;DHT22;7953;54.302;10.128;2022-09-16T11:44:43;14.40;99.90
15707;DHT22;7953;54.302;10.128;2022-09-16T11:47:24;14.30;99.90
15707;DHT22;7953;54.302;10.128;2022-09-16T11:50:07;14.40;99.90
15707;DHT22;7953;54.302;10.128;2022-09-16T11:52:58;14.40;99.90
15707;DHT22;7953;54.302;10.128;2022-09-16T11:55:37;14.40;99.90
15707;DHT22;7953;54.302;10.128;2022-09-16T11:58:16;14.50;99.90
15707;DHT22;7953;54.302;10.128;2022-09-16T12:00:46;14.50;99.90
15707;DHT22;7953;54.302;10.128;2022-09-16T12:03:21;14.60;99.90
15707;DHT22;7953;54.302;10.128;2022-09-16T12:05:55;14.70;99.90
15707;DHT22;7953;54.302;10.128;2022-09-16T12:08:32;14.80;99.90
15707;DHT22;7953;54.302;10.128;2022-09-16T12:11:15;14.80;99.90
15707;DHT22;7953;54.302;10.128;2022-09-16T12:13:48;14.80;99.90
15707;DHT22;7953;54.302;10.128;2022-09-16T12:16:23;15.00;99.90
15707;DHT22;7953;54.302;10.128;2022-09-16T12:18:54;15.00;99.90
15707;DHT22;7953;54.302;10.128;2022-09-16T12:21:26;15.10;99.90
15707;DHT22;7953;54.302;10.128;2022-09-16T12:23:57;15.20;99.90
15707;DHT22;7953;54.302;10.128;2022-09-16T12:26:28;15.20;99.90
15707;DHT22;7953;54.302;10.128;2022-09-16T12:29:01;15.30;99.90
15707;DHT22;7953;54.302;10.128;2022-09-16T12:31:32;15.10;99.90
15707;DHT22;7953;54.302;10.128;2022-09-16T12:34:03;15.00;99.90
15707;DHT22;7953;54.302;10.128;2022-09-16T12:36:35;14.80;99.90
15707;DHT22;7953;54.302;10.128;2022-09-16T12:39:03;14.80;99.90
15707;DHT22;7953;54.302;10.128;2022-09-16T12:41:48;14.60;99.90
15707;DHT22;7953;54.302;10.128;2022-09-16T12:44:46;14.60;99.90
15707;DHT22;7953;54.302;10.128;2022-09-16T12:47:58;14.40;99.90
15707;DHT22;7953;54.302;10.128;2022-09-16T12:50:44;14.40;99.90
15707;DHT22;7953;54.302;10.128;2022-09-16T12:56:37;14.60;99.90
15707;DHT22;7953;54.302;10.128;2022-09-16T12:59:24;14.50;99.90
15707;DHT22;7953;54.302;10.128;2022-09-16T13:01:56;14.60;99.90
15707;DHT22;7953;54.302;10.128;2022-09-16T13:04:27;14.70;99.90
15707;DHT22;7953;54.302;10.128;2022-09-16T13:06:57;14.60;99.90
15707;DHT22;7953;54.302;10.128;2022-09-16T13:09:29;14.50;99.90
15707;DHT22;7953;54.302;10.128;2022-09-16T13:12:00;14.50;99.90
15707;DHT22;7953;54.302;10.128;2022-09-16T13:14:29;14.50;99.90
15707;DHT22;7953;54.302;10.128;2022-09-16T13:16:59;14.40;99.90
15707;DHT22;7953;54.302;10.128;2022-09-16T13:19:33;14.40;99.90
15707;DHT22;7953;54.302;10.128;2022-09-16T13:22:14;14.50;99.90
15707;DHT22;7953;54.302;10.128;2022-09-16T13:24:48;14.50;99.90
15707;DHT22;7953;54.302;10.128;2022-09-16T13:27:31;14.50;99.90
15707;DHT22;7953;54.302;10.128;2022-09-16T13:30:25;14.50;99.90
15707;DHT22;7953;54.302;10.128;2022-09-16T13:33:01;14.40;99.90
15707;DHT22;7953;54.302;10.128;2022-09-16T13:35:37;14.20;99.90
15707;DHT22;7953;54.302;10.128;2022-09-16T13:38:23;14.00;99.90
15707;DHT22;7953;54.302;10.128;2022-09-16T13:40:58;13.80;99.90
15707;DHT22;7953;54.302;10.128;2022-09-16T13:43:34;13.80;99.90
15707;DHT22;7953;54.302;10.128;2022-09-16T13:46:09;13.70;99.90
15707;DHT22;7953;54.302;10.128;2022-09-16T13:48:44;13.60;99.90
15707;DHT22;7953;54.302;10.128;2022-09-16T13:51:17;13.50;99.90
15707;DHT22;7953;54.302;10.128;2022-09-16T13:53:47;13.40;99.90
15707;DHT22;7953;54.302;10.128;2022-09-16T13:56:41;13.30;99.90
15707;DHT22;7953;54.302;10.128;2022-09-16T13:59:23;13.20;99.90
15707;DHT22;7953;54.302;10.128;2022-09-16T14:02:03;13.10;99.90
15707;DHT22;7953;54.302;10.128;2022-09-16T14:04:45;13.10;99.90
15707;DHT22;7953;54.302;10.128;2022-09-16T14:07:28;13.00;99.90
15707;DHT22;7953;54.302;10.128;2022-09-16T14:09:59;13.00;99.90
15707;DHT22;7953;54.302;10.128;2022-09-16T14:12:36;12.90;99.90
15707;DHT22;7953;54.302;10.128;2022-09-16T14:15:07;12.90;99.90
15707;DHT22;7953;54.302;10.128;2022-09-16T14:17:38;12.80;99.90
15707;DHT22;7953;54.302;10.128;2022-09-16T14:20:12;12.90;99.90
15707;DHT22;7953;54.302;10.128;2022-09-16T14:22:42;12.90;99.90
15707;DHT22;7953;54.302;10.128;2022-09-16T14:25:28;12.80;99.90
15707;DHT22;7953;54.302;10.128;2022-09-16T14:28:08;12.80;99.90
15707;DHT22;7953;54.302;10.128;2022-09-16T14:30:35;12.70;99.90
15707;DHT22;7953;54.302;10.128;2022-09-16T14:33:02;12.70;99.90
15707;DHT22;7953;54.302;10.128;2022-09-16T14:35:32;12.80;99.90
15707;DHT22;7953;54.302;10.128;2022-09-16T14:38:02;12.80;99.90
15707;DHT22;7953;54.302;10.128;2022-09-16T14:40:30;12.90;99.90
15707;DHT22;7953;54.302;10.128;2022-09-16T14:42:59;12.80;99.90
15707;DHT22;7953;54.302;10.128;2022-09-16T14:45:44;12.90;99.90
15707;DHT22;7953;54.302;10.128;2022-09-16T14:48:12;12.80;99.90
15707;DHT22;7953;54.302;10.128;2022-09-16T14:50:43;12.80;99.90
15707;DHT22;7953;54.302;10.128;2022-09-16T14:53:26;12.90;99.90
15707;DHT22;7953;54.302;10.128;2022-09-16T14:55:53;13.00;99.90
15707;DHT22;7953;54.302;10.128;2022-09-16T14:58:22;13.00;99.90
15707;DHT22;7953;54.302;10.128;2022-09-16T15:00:53;13.10;99.90
15707;DHT22;7953;54.302;10.128;2022-09-16T15:03:25;13.20;99.90
15707;DHT22;7953;54.302;10.128;2022-09-16T15:05:54;13.20;99.90
15707;DHT22;7953;54.302;10.128;2022-09-16T15:08:26;13.20;99.90
15707;DHT22;7953;54.302;10.128;2022-09-16T15:10:58;13.30;99.90
15707;DHT22;7953;54.302;10.128;2022-09-16T15:13:27;13.40;99.90
15707;DHT22;7953;54.302;10.128;2022-09-16T15:15:58;13.50;99.90
15707;DHT22;7953;54.302;10.128;2022-09-16T15:18:29;13.50;99.90
15707;DHT22;7953;54.302;10.128;2022-09-16T15:21:06;13.60;99.90
15707;DHT22;7953;54.302;10.128;2022-09-16T15:23:34;13.60;99.90
15707;DHT22;7953;54.302;10.128;2022-09-16T15:26:13;13.70;99.90
15707;DHT22;7953;54.302;10.128;2022-09-16T15:28:51;13.70;99.90
15707;DHT22;7953;54.302;10.128;2022-09-16T15:31:28;13.70;99.90
15707;DHT22;7953;54.302;10.128;2022-09-16T15:33:56;13.80;99.90
15707;DHT22;7953;54.302;10.128;2022-09-16T15:36:36;13.90;99.90
15707;DHT22;7953;54.302;10.128;2022-09-16T15:39:04;13.90;99.90
15707;DHT22;7953;54.302;10.128;2022-09-16T15:41:31;14.00;99.90
15707;DHT22;7953;54.302;10.128;2022-09-16T15:43:59;14.00;99.90
15707;DHT22;7953;54.302;10.128;2022-09-16T15:46:28;14.00;99.90
15707;DHT22;7953;54.302;10.128;2022-09-16T15:48:57;14.00;99.90
15707;DHT22;7953;54.302;10.128;2022-09-16T15:51:31;14.00;99.90
15707;DHT22;7953;54.302;10.128;2022-09-16T15:54:05;14.00;99.90
15707;DHT22;7953;54.302;10.128;2022-09-16T15:56:38;14.10;99.90
15707;DHT22;7953;54.302;10.128;2022-09-16T15:59:19;14.00;99.90
15707;DHT22;7953;54.302;10.128;2022-09-16T16:01:51;14.00;99.90
15707;DHT22;7953;54.302;10.128;2022-09-16T16:04:25;14.00;99.90
15707;DHT22;7953;54.302;10.128;2022-09-16T16:06:54;14.00;99.90